Benson, Illinois
Current Conditions -  °F | °C
As of 7:55 PM on Saturday 20 Dec 2014 (Local Time) from KC75 Reporting Station
Overcast Overcast  
Wind Chill: 32°   Ceiling: 4200
Heat Index: 32°   Visibility: 7mi
Dew Point: 28°   Wind: 3mph
Humidity: 85%   Direction: 170°S
Pressure: 30.24"   Gusts: NA
Location:  40.85°N, 89.12°W
Report Text: KC75 210155Z AUTO 17003KT 7SM OVC042 00/M02 A3024 RMK AO2 T00011021
Loading
Personal Weather Stations






























Interactive Weather Map New forecast layout! Learn more

10-Day Weather Forecast

Advertisements
Track Severe Weather on mobile